sensor_id;sensor_type;location;lat;lon;timestamp;P1;durP1;ratioP1;P2;durP2;ratioP2
48767;SDS011;34933;40.968;14.538;2022-07-29T00:01:18;10.10;;;6.07;;
48767;SDS011;34933;40.968;14.538;2022-07-29T00:04:03;11.07;;;6.47;;
48767;SDS011;34933;40.968;14.538;2022-07-29T00:06:48;12.95;;;7.03;;
48767;SDS011;34933;40.968;14.538;2022-07-29T00:09:32;14.00;;;7.10;;
48767;SDS011;34933;40.968;14.538;2022-07-29T00:12:17;17.20;;;7.05;;
48767;SDS011;34933;40.968;14.538;2022-07-29T00:15:06;9.93;;;6.30;;
48767;SDS011;34933;40.968;14.538;2022-07-29T00:17:51;14.02;;;6.93;;
48767;SDS011;34933;40.968;14.538;2022-07-29T00:20:36;14.02;;;6.85;;
48767;SDS011;34933;40.968;14.538;2022-07-29T00:23:20;10.65;;;6.88;;
48767;SDS011;34933;40.968;14.538;2022-07-29T00:26:05;15.82;;;6.32;;
48767;SDS011;34933;40.968;14.538;2022-07-29T00:28:50;13.13;;;6.75;;
48767;SDS011;34933;40.968;14.538;2022-07-29T00:31:34;15.57;;;6.75;;
48767;SDS011;34933;40.968;14.538;2022-07-29T00:34:20;12.35;;;6.55;;
48767;SDS011;34933;40.968;14.538;2022-07-29T00:37:23;10.27;;;6.32;;
48767;SDS011;34933;40.968;14.538;2022-07-29T00:40:08;12.10;;;6.82;;
48767;SDS011;34933;40.968;14.538;2022-07-29T00:42:53;9.05;;;6.65;;
48767;SDS011;34933;40.968;14.538;2022-07-29T00:45:38;8.05;;;6.50;;
48767;SDS011;34933;40.968;14.538;2022-07-29T00:48:23;11.13;;;6.40;;
48767;SDS011;34933;40.968;14.538;2022-07-29T00:51:08;18.08;;;7.40;;
48767;SDS011;34933;40.968;14.538;2022-07-29T00:53:54;11.93;;;6.85;;
48767;SDS011;34933;40.968;14.538;2022-07-29T00:56:39;12.85;;;8.25;;
48767;SDS011;34933;40.968;14.538;2022-07-29T00:59:25;10.02;;;7.32;;
48767;SDS011;34933;40.968;14.538;2022-07-29T01:02:10;9.55;;;7.43;;
48767;SDS011;34933;40.968;14.538;2022-07-29T01:04:55;14.88;;;6.97;;
48767;SDS011;34933;40.968;14.538;2022-07-29T01:07:41;7.53;;;6.03;;
48767;SDS011;34933;40.968;14.538;2022-07-29T01:10:26;11.60;;;7.25;;
48767;SDS011;34933;40.968;14.538;2022-07-29T01:13:11;15.07;;;7.35;;
48767;SDS011;34933;40.968;14.538;2022-07-29T01:15:59;10.27;;;6.72;;
48767;SDS011;34933;40.968;14.538;2022-07-29T01:18:51;10.65;;;7.60;;
48767;SDS011;34933;40.968;14.538;2022-07-29T01:21:51;10.38;;;7.03;;
48767;SDS011;34933;40.968;14.538;2022-07-29T01:24:49;8.18;;;6.22;;
48767;SDS011;34933;40.968;14.538;2022-07-29T01:30:36;11.25;;;7.20;;
48767;SDS011;34933;40.968;14.538;2022-07-29T01:33:23;14.32;;;7.43;;
48767;SDS011;34933;40.968;14.538;2022-07-29T01:36:33;10.65;;;7.20;;
48767;SDS011;34933;40.968;14.538;2022-07-29T01:39:28;15.05;;;7.78;;
48767;SDS011;34933;40.968;14.538;2022-07-29T01:42:20;11.30;;;6.90;;
48767;SDS011;34933;40.968;14.538;2022-07-29T01:48:37;11.13;;;7.63;;
48767;SDS011;34933;40.968;14.538;2022-07-29T01:51:31;11.93;;;6.75;;
48767;SDS011;34933;40.968;14.538;2022-07-29T01:54:25;11.35;;;7.40;;
48767;SDS011;34933;40.968;14.538;2022-07-29T01:57:27;12.48;;;7.07;;
48767;SDS011;34933;40.968;14.538;2022-07-29T02:00:15;15.73;;;7.38;;
48767;SDS011;34933;40.968;14.538;2022-07-29T02:03:02;9.25;;;6.57;;
48767;SDS011;34933;40.968;14.538;2022-07-29T02:05:50;20.45;;;7.43;;
48767;SDS011;34933;40.968;14.538;2022-07-29T02:08:36;9.13;;;6.28;;
48767;SDS011;34933;40.968;14.538;2022-07-29T02:11:23;10.70;;;6.80;;
48767;SDS011;34933;40.968;14.538;2022-07-29T02:14:08;8.98;;;6.78;;
48767;SDS011;34933;40.968;14.538;2022-07-29T02:16:54;11.95;;;6.00;;
48767;SDS011;34933;40.968;14.538;2022-07-29T02:19:42;12.18;;;6.28;;
48767;SDS011;34933;40.968;14.538;2022-07-29T02:22:29;10.55;;;6.40;;
48767;SDS011;34933;40.968;14.538;2022-07-29T02:25:17;11.68;;;6.90;;
48767;SDS011;34933;40.968;14.538;2022-07-29T02:28:02;17.70;;;7.25;;
48767;SDS011;34933;40.968;14.538;2022-07-29T02:30:47;9.55;;;7.00;;
48767;SDS011;34933;40.968;14.538;2022-07-29T02:33:33;14.02;;;7.03;;
48767;SDS011;34933;40.968;14.538;2022-07-29T02:36:18;12.77;;;6.70;;
48767;SDS011;34933;40.968;14.538;2022-07-29T02:39:06;17.30;;;8.30;;
48767;SDS011;34933;40.968;14.538;2022-07-29T02:41:55;15.13;;;7.32;;
48767;SDS011;34933;40.968;14.538;2022-07-29T02:44:44;16.25;;;6.82;;
48767;SDS011;34933;40.968;14.538;2022-07-29T02:47:40;16.48;;;7.13;;
48767;SDS011;34933;40.968;14.538;2022-07-29T02:50:32;14.60;;;6.57;;
48767;SDS011;34933;40.968;14.538;2022-07-29T02:56:07;9.23;;;7.15;;
48767;SDS011;34933;40.968;14.538;2022-07-29T02:58:57;11.93;;;6.82;;
48767;SDS011;34933;40.968;14.538;2022-07-29T03:01:44;17.63;;;6.85;;
48767;SDS011;34933;40.968;14.538;2022-07-29T03:04:30;20.80;;;8.13;;
48767;SDS011;34933;40.968;14.538;2022-07-29T03:07:15;10.25;;;6.65;;
48767;SDS011;34933;40.968;14.538;2022-07-29T03:10:04;17.42;;;7.82;;
48767;SDS011;34933;40.968;14.538;2022-07-29T03:12:51;13.45;;;6.93;;
48767;SDS011;34933;40.968;14.538;2022-07-29T03:15:37;13.80;;;6.57;;
48767;SDS011;34933;40.968;14.538;2022-07-29T03:18:23;10.07;;;6.78;;
48767;SDS011;34933;40.968;14.538;2022-07-29T03:21:08;13.52;;;6.93;;
48767;SDS011;34933;40.968;14.538;2022-07-29T03:23:52;10.50;;;6.43;;
48767;SDS011;34933;40.968;14.538;2022-07-29T03:26:37;11.88;;;6.30;;
48767;SDS011;34933;40.968;14.538;2022-07-29T03:29:21;11.23;;;6.10;;
48767;SDS011;34933;40.968;14.538;2022-07-29T03:32:06;12.35;;;7.00;;
48767;SDS011;34933;40.968;14.538;2022-07-29T03:34:51;12.05;;;6.53;;
48767;SDS011;34933;40.968;14.538;2022-07-29T03:37:35;6.55;;;5.95;;
48767;SDS011;34933;40.968;14.538;2022-07-29T03:40:22;10.98;;;6.72;;
48767;SDS011;34933;40.968;14.538;2022-07-29T03:43:11;10.05;;;6.28;;
48767;SDS011;34933;40.968;14.538;2022-07-29T03:45:58;8.07;;;6.00;;
48767;SDS011;34933;40.968;14.538;2022-07-29T03:48:46;10.65;;;5.90;;
48767;SDS011;34933;40.968;14.538;2022-07-29T03:51:34;13.57;;;7.00;;
48767;SDS011;34933;40.968;14.538;2022-07-29T03:54:19;9.43;;;6.82;;
48767;SDS011;34933;40.968;14.538;2022-07-29T03:57:04;11.15;;;6.53;;
48767;SDS011;34933;40.968;14.538;2022-07-29T03:59:51;11.65;;;6.35;;
48767;SDS011;34933;40.968;14.538;2022-07-29T04:02:36;11.25;;;5.95;;
48767;SDS011;34933;40.968;14.538;2022-07-29T04:05:22;7.93;;;5.97;;
48767;SDS011;34933;40.968;14.538;2022-07-29T04:08:07;12.65;;;6.80;;
48767;SDS011;34933;40.968;14.538;2022-07-29T04:10:51;12.90;;;7.40;;
48767;SDS011;34933;40.968;14.538;2022-07-29T04:13:36;14.20;;;6.22;;
48767;SDS011;34933;40.968;14.538;2022-07-29T04:16:20;12.75;;;6.20;;
48767;SDS011;34933;40.968;14.538;2022-07-29T04:19:05;12.18;;;6.75;;
48767;SDS011;34933;40.968;14.538;2022-07-29T04:21:49;10.50;;;6.82;;
48767;SDS011;34933;40.968;14.538;2022-07-29T04:24:35;35.75;;;8.23;;
48767;SDS011;34933;40.968;14.538;2022-07-29T04:27:19;9.00;;;6.68;;
48767;SDS011;34933;40.968;14.538;2022-07-29T04:30:04;16.20;;;7.15;;
48767;SDS011;34933;40.968;14.538;2022-07-29T04:32:49;16.95;;;6.63;;
48767;SDS011;34933;40.968;14.538;2022-07-29T04:35:34;14.52;;;7.25;;
48767;SDS011;34933;40.968;14.538;2022-07-29T04:38:21;22.10;;;7.40;;
48767;SDS011;34933;40.968;14.538;2022-07-29T04:41:06;24.88;;;7.18;;
48767;SDS011;34933;40.968;14.538;2022-07-29T04:43:52;24.55;;;8.07;;
48767;SDS011;34933;40.968;14.538;2022-07-29T04:46:36;33.38;;;8.98;;
48767;SDS011;34933;40.968;14.538;2022-07-29T04:49:21;30.10;;;9.18;;
48767;SDS011;34933;40.968;14.538;2022-07-29T04:52:05;38.47;;;10.77;;
48767;SDS011;34933;40.968;14.538;2022-07-29T04:54:50;41.78;;;11.25;;
48767;SDS011;34933;40.968;14.538;2022-07-29T04:57:35;39.15;;;11.68;;
48767;SDS011;34933;40.968;14.538;2022-07-29T05:00:20;47.40;;;13.73;;
48767;SDS011;34933;40.968;14.538;2022-07-29T05:03:04;38.72;;;12.30;;
48767;SDS011;34933;40.968;14.538;2022-07-29T05:05:48;39.83;;;14.48;;
48767;SDS011;34933;40.968;14.538;2022-07-29T05:08:33;51.42;;;19.58;;
48767;SDS011;34933;40.968;14.538;2022-07-29T05:11:18;52.67;;;26.27;;
48767;SDS011;34933;40.968;14.538;2022-07-29T05:14:02;55.75;;;24.90;;
48767;SDS011;34933;40.968;14.538;2022-07-29T05:16:47;66.15;;;28.00;;
48767;SDS011;34933;40.968;14.538;2022-07-29T05:19:34;53.28;;;27.05;;
48767;SDS011;34933;40.968;14.538;2022-07-29T05:22:19;63.47;;;34.15;;
48767;SDS011;34933;40.968;14.538;2022-07-29T05:25:04;73.47;;;33.70;;
48767;SDS011;34933;40.968;14.538;2022-07-29T05:27:49;64.88;;;27.63;;
48767;SDS011;34933;40.968;14.538;2022-07-29T05:30:34;58.45;;;26.67;;
48767;SDS011;34933;40.968;14.538;2022-07-29T05:33:18;63.30;;;27.80;;
48767;SDS011;34933;40.968;14.538;2022-07-29T05:36:06;79.32;;;27.95;;
48767;SDS011;34933;40.968;14.538;2022-07-29T05:38:51;76.53;;;28.75;;
48767;SDS011;34933;40.968;14.538;2022-07-29T05:41:35;66.85;;;27.45;;
48767;SDS011;34933;40.968;14.538;2022-07-29T05:44:20;61.28;;;26.50;;
48767;SDS011;34933;40.968;14.538;2022-07-29T05:47:05;65.32;;;24.75;;
48767;SDS011;34933;40.968;14.538;2022-07-29T05:49:50;77.30;;;24.23;;
48767;SDS011;34933;40.968;14.538;2022-07-29T05:52:35;53.38;;;21.05;;
48767;SDS011;34933;40.968;14.538;2022-07-29T05:55:19;67.63;;;20.67;;
48767;SDS011;34933;40.968;14.538;2022-07-29T05:58:04;44.60;;;21.60;;
48767;SDS011;34933;40.968;14.538;2022-07-29T06:00:48;46.80;;;18.73;;
48767;SDS011;34933;40.968;14.538;2022-07-29T06:03:33;48.40;;;19.30;;
48767;SDS011;34933;40.968;14.538;2022-07-29T06:06:18;43.50;;;20.30;;
48767;SDS011;34933;40.968;14.538;2022-07-29T06:09:02;37.50;;;23.30;;
48767;SDS011;34933;40.968;14.538;2022-07-29T06:11:47;33.83;;;17.88;;
48767;SDS011;34933;40.968;14.538;2022-07-29T06:14:32;43.97;;;18.77;;
48767;SDS011;34933;40.968;14.538;2022-07-29T06:17:16;46.92;;;19.42;;
48767;SDS011;34933;40.968;14.538;2022-07-29T06:20:02;45.45;;;18.95;;
48767;SDS011;34933;40.968;14.538;2022-07-29T06:22:47;36.13;;;17.20;;
48767;SDS011;34933;40.968;14.538;2022-07-29T06:25:31;32.30;;;14.35;;
48767;SDS011;34933;40.968;14.538;2022-07-29T06:28:18;27.67;;;13.50;;
48767;SDS011;34933;40.968;14.538;2022-07-29T06:31:03;21.05;;;7.95;;
48767;SDS011;34933;40.968;14.538;2022-07-29T06:33:48;16.38;;;8.30;;
48767;SDS011;34933;40.968;14.538;2022-07-29T06:36:36;21.60;;;8.13;;
48767;SDS011;34933;40.968;14.538;2022-07-29T06:39:21;19.58;;;7.80;;
48767;SDS011;34933;40.968;14.538;2022-07-29T06:42:06;18.02;;;8.20;;
48767;SDS011;34933;40.968;14.538;2022-07-29T06:44:50;23.00;;;8.70;;
48767;SDS011;34933;40.968;14.538;2022-07-29T06:47:36;19.00;;;8.88;;
48767;SDS011;34933;40.968;14.538;2022-07-29T06:50:20;17.30;;;6.85;;
48767;SDS011;34933;40.968;14.538;2022-07-29T06:53:05;18.48;;;7.18;;
48767;SDS011;34933;40.968;14.538;2022-07-29T06:55:51;16.08;;;7.75;;
48767;SDS011;34933;40.968;14.538;2022-07-29T06:58:35;21.95;;;8.15;;
48767;SDS011;34933;40.968;14.538;2022-07-29T07:01:20;15.30;;;7.43;;
48767;SDS011;34933;40.968;14.538;2022-07-29T07:04:04;12.80;;;7.00;;
48767;SDS011;34933;40.968;14.538;2022-07-29T07:06:49;19.52;;;8.38;;
48767;SDS011;34933;40.968;14.538;2022-07-29T07:09:34;23.90;;;8.13;;
48767;SDS011;34933;40.968;14.538;2022-07-29T07:12:19;20.80;;;8.38;;
48767;SDS011;34933;40.968;14.538;2022-07-29T07:15:04;18.88;;;8.25;;
48767;SDS011;34933;40.968;14.538;2022-07-29T07:17:49;19.77;;;8.85;;
48767;SDS011;34933;40.968;14.538;2022-07-29T07:20:34;11.93;;;5.85;;
48767;SDS011;34933;40.968;14.538;2022-07-29T07:23:19;7.95;;;3.90;;
48767;SDS011;34933;40.968;14.538;2022-07-29T07:26:03;12.63;;;4.60;;
48767;SDS011;34933;40.968;14.538;2022-07-29T07:28:49;10.23;;;4.43;;
48767;SDS011;34933;40.968;14.538;2022-07-29T07:31:34;16.40;;;6.80;;
48767;SDS011;34933;40.968;14.538;2022-07-29T07:34:19;20.17;;;6.30;;
48767;SDS011;34933;40.968;14.538;2022-07-29T07:37:04;13.50;;;6.20;;
48767;SDS011;34933;40.968;14.538;2022-07-29T07:39:49;19.08;;;6.60;;
48767;SDS011;34933;40.968;14.538;2022-07-29T07:42:35;16.30;;;5.95;;
48767;SDS011;34933;40.968;14.538;2022-07-29T07:45:19;13.13;;;6.75;;
48767;SDS011;34933;40.968;14.538;2022-07-29T07:48:04;13.15;;;6.22;;
48767;SDS011;34933;40.968;14.538;2022-07-29T07:50:48;15.52;;;6.90;;
48767;SDS011;34933;40.968;14.538;2022-07-29T07:53:34;19.90;;;6.60;;
48767;SDS011;34933;40.968;14.538;2022-07-29T07:56:19;14.32;;;6.93;;
48767;SDS011;34933;40.968;14.538;2022-07-29T07:59:04;11.32;;;6.20;;
48767;SDS011;34933;40.968;14.538;2022-07-29T08:01:48;13.82;;;5.90;;
48767;SDS011;34933;40.968;14.538;2022-07-29T08:04:34;9.75;;;5.70;;
48767;SDS011;34933;40.968;14.538;2022-07-29T08:07:18;16.10;;;7.05;;
48767;SDS011;34933;40.968;14.538;2022-07-29T08:10:03;14.60;;;6.85;;
48767;SDS011;34933;40.968;14.538;2022-07-29T08:12:48;12.85;;;6.13;;
48767;SDS011;34933;40.968;14.538;2022-07-29T08:15:33;12.63;;;5.90;;
48767;SDS011;34933;40.968;14.538;2022-07-29T08:18:18;10.57;;;5.43;;
48767;SDS011;34933;40.968;14.538;2022-07-29T08:21:03;20.17;;;6.25;;
48767;SDS011;34933;40.968;14.538;2022-07-29T08:23:47;15.18;;;6.95;;
48767;SDS011;34933;40.968;14.538;2022-07-29T08:26:58;12.93;;;6.15;;
48767;SDS011;34933;40.968;14.538;2022-07-29T08:29:43;12.13;;;5.93;;
48767;SDS011;34933;40.968;14.538;2022-07-29T08:32:28;14.85;;;6.10;;
48767;SDS011;34933;40.968;14.538;2022-07-29T08:35:12;13.63;;;5.53;;
48767;SDS011;34933;40.968;14.538;2022-07-29T08:37:57;9.48;;;5.47;;
48767;SDS011;34933;40.968;14.538;2022-07-29T08:40:42;18.10;;;6.70;;
48767;SDS011;34933;40.968;14.538;2022-07-29T08:43:30;12.98;;;6.03;;
48767;SDS011;34933;40.968;14.538;2022-07-29T08:46:16;15.45;;;6.70;;
48767;SDS011;34933;40.968;14.538;2022-07-29T08:49:03;13.02;;;5.93;;
48767;SDS011;34933;40.968;14.538;2022-07-29T08:51:47;12.43;;;5.85;;
48767;SDS011;34933;40.968;14.538;2022-07-29T08:54:32;14.63;;;5.60;;
48767;SDS011;34933;40.968;14.538;2022-07-29T08:57:18;16.23;;;5.32;;
48767;SDS011;34933;40.968;14.538;2022-07-29T09:00:04;12.70;;;5.53;;
48767;SDS011;34933;40.968;14.538;2022-07-29T09:02:51;8.50;;;4.47;;
48767;SDS011;34933;40.968;14.538;2022-07-29T09:05:46;10.13;;;4.63;;
48767;SDS011;34933;40.968;14.538;2022-07-29T09:08:32;8.85;;;5.35;;
48767;SDS011;34933;40.968;14.538;2022-07-29T09:11:17;12.38;;;4.07;;
48767;SDS011;34933;40.968;14.538;2022-07-29T09:14:01;8.75;;;4.10;;
48767;SDS011;34933;40.968;14.538;2022-07-29T09:16:51;9.32;;;4.35;;
48767;SDS011;34933;40.968;14.538;2022-07-29T09:19:36;9.05;;;4.40;;
48767;SDS011;34933;40.968;14.538;2022-07-29T09:22:28;15.13;;;4.70;;
48767;SDS011;34933;40.968;14.538;2022-07-29T09:25:14;9.82;;;4.63;;
48767;SDS011;34933;40.968;14.538;2022-07-29T09:28:19;11.77;;;4.88;;
48767;SDS011;34933;40.968;14.538;2022-07-29T09:31:03;7.82;;;4.65;;
48767;SDS011;34933;40.968;14.538;2022-07-29T09:33:49;12.98;;;5.38;;
48767;SDS011;34933;40.968;14.538;2022-07-29T09:36:45;33.65;;;5.95;;
48767;SDS011;34933;40.968;14.538;2022-07-29T09:39:32;9.02;;;4.32;;
48767;SDS011;34933;40.968;14.538;2022-07-29T09:42:30;53.25;;;7.85;;
48767;SDS011;34933;40.968;14.538;2022-07-29T09:45:33;10.18;;;5.18;;
48767;SDS011;34933;40.968;14.538;2022-07-29T09:48:22;25.85;;;5.22;;
48767;SDS011;34933;40.968;14.538;2022-07-29T09:51:18;8.88;;;5.05;;
48767;SDS011;34933;40.968;14.538;2022-07-29T09:54:25;11.70;;;4.45;;
48767;SDS011;34933;40.968;14.538;2022-07-29T09:57:22;15.07;;;5.05;;
48767;SDS011;34933;40.968;14.538;2022-07-29T10:02:56;8.15;;;4.05;;
48767;SDS011;34933;40.968;14.538;2022-07-29T10:05:46;14.23;;;4.28;;
48767;SDS011;34933;40.968;14.538;2022-07-29T10:08:51;11.90;;;5.00;;
48767;SDS011;34933;40.968;14.538;2022-07-29T10:11:36;12.95;;;5.22;;
48767;SDS011;34933;40.968;14.538;2022-07-29T10:14:20;13.45;;;4.57;;
48767;SDS011;34933;40.968;14.538;2022-07-29T10:17:06;9.00;;;4.53;;
48767;SDS011;34933;40.968;14.538;2022-07-29T10:19:52;62.15;;;9.52;;
48767;SDS011;34933;40.968;14.538;2022-07-29T10:22:36;14.93;;;5.68;;
48767;SDS011;34933;40.968;14.538;2022-07-29T10:25:22;15.85;;;5.32;;
48767;SDS011;34933;40.968;14.538;2022-07-29T10:28:07;35.08;;;6.25;;
48767;SDS011;34933;40.968;14.538;2022-07-29T10:30:52;23.58;;;6.22;;
48767;SDS011;34933;40.968;14.538;2022-07-29T10:33:55;16.02;;;4.55;;
48767;SDS011;34933;40.968;14.538;2022-07-29T10:42:33;24.70;;;5.50;;
48767;SDS011;34933;40.968;14.538;2022-07-29T10:45:24;9.70;;;4.60;;
48767;SDS011;34933;40.968;14.538;2022-07-29T10:48:09;8.32;;;4.30;;
48767;SDS011;34933;40.968;14.538;2022-07-29T10:53:51;11.07;;;4.82;;
48767;SDS011;34933;40.968;14.538;2022-07-29T10:56:37;9.60;;;4.45;;
48767;SDS011;34933;40.968;14.538;2022-07-29T11:05:20;16.75;;;6.32;;
48767;SDS011;34933;40.968;14.538;2022-07-29T11:14:00;15.65;;;6.10;;
48767;SDS011;34933;40.968;14.538;2022-07-29T11:26:15;11.48;;;5.82;;
48767;SDS011;34933;40.968;14.538;2022-07-29T11:29:20;12.45;;;5.57;;
48767;SDS011;34933;40.968;14.538;2022-07-29T11:32:09;10.98;;;5.50;;
48767;SDS011;34933;40.968;14.538;2022-07-29T11:41:23;16.58;;;5.00;;
48767;SDS011;34933;40.968;14.538;2022-07-29T11:46:52;14.18;;;5.00;;
48767;SDS011;34933;40.968;14.538;2022-07-29T11:49:37;13.13;;;5.20;;
48767;SDS011;34933;40.968;14.538;2022-07-29T11:52:36;11.18;;;5.22;;
48767;SDS011;34933;40.968;14.538;2022-07-29T11:55:29;10.77;;;5.88;;
48767;SDS011;34933;40.968;14.538;2022-07-29T11:58:15;15.98;;;5.85;;
48767;SDS011;34933;40.968;14.538;2022-07-29T12:01:06;10.60;;;5.15;;
48767;SDS011;34933;40.968;14.538;2022-07-29T12:04:01;14.57;;;5.80;;
48767;SDS011;34933;40.968;14.538;2022-07-29T12:06:50;9.73;;;4.97;;
48767;SDS011;34933;40.968;14.538;2022-07-29T12:09:35;13.70;;;5.53;;
48767;SDS011;34933;40.968;14.538;2022-07-29T12:12:20;8.90;;;4.78;;
48767;SDS011;34933;40.968;14.538;2022-07-29T12:15:24;12.27;;;4.88;;
48767;SDS011;34933;40.968;14.538;2022-07-29T12:18:10;9.75;;;5.75;;
48767;SDS011;34933;40.968;14.538;2022-07-29T12:21:00;12.50;;;5.32;;
48767;SDS011;34933;40.968;14.538;2022-07-29T12:23:54;10.80;;;4.50;;
48767;SDS011;34933;40.968;14.538;2022-07-29T12:30:08;9.57;;;4.72;;
48767;SDS011;34933;40.968;14.538;2022-07-29T12:32:54;10.02;;;4.57;;
48767;SDS011;34933;40.968;14.538;2022-07-29T12:35:39;7.47;;;4.70;;
48767;SDS011;34933;40.968;14.538;2022-07-29T12:38:25;11.75;;;4.95;;
48767;SDS011;34933;40.968;14.538;2022-07-29T12:41:10;11.68;;;5.38;;
48767;SDS011;34933;40.968;14.538;2022-07-29T12:43:54;13.02;;;4.95;;
48767;SDS011;34933;40.968;14.538;2022-07-29T12:46:39;10.27;;;5.32;;
48767;SDS011;34933;40.968;14.538;2022-07-29T12:49:24;10.40;;;5.57;;
48767;SDS011;34933;40.968;14.538;2022-07-29T12:55:37;9.52;;;5.95;;
48767;SDS011;34933;40.968;14.538;2022-07-29T12:58:28;10.27;;;5.03;;
48767;SDS011;34933;40.968;14.538;2022-07-29T13:01:15;10.63;;;4.60;;
48767;SDS011;34933;40.968;14.538;2022-07-29T13:04:03;14.63;;;5.10;;
48767;SDS011;34933;40.968;14.538;2022-07-29T13:06:48;15.68;;;4.85;;
48767;SDS011;34933;40.968;14.538;2022-07-29T13:09:43;10.75;;;4.35;;
48767;SDS011;34933;40.968;14.538;2022-07-29T13:12:29;7.88;;;3.97;;
48767;SDS011;34933;40.968;14.538;2022-07-29T13:15:14;9.45;;;5.60;;
48767;SDS011;34933;40.968;14.538;2022-07-29T13:17:59;8.70;;;5.78;;
48767;SDS011;34933;40.968;14.538;2022-07-29T13:20:44;6.78;;;5.05;;
48767;SDS011;34933;40.968;14.538;2022-07-29T13:23:28;8.70;;;4.78;;
48767;SDS011;34933;40.968;14.538;2022-07-29T13:26:13;12.40;;;4.20;;
48767;SDS011;34933;40.968;14.538;2022-07-29T13:29:01;9.60;;;5.32;;
48767;SDS011;34933;40.968;14.538;2022-07-29T13:31:46;9.63;;;5.40;;
48767;SDS011;34933;40.968;14.538;2022-07-29T13:34:31;8.60;;;4.82;;
48767;SDS011;34933;40.968;14.538;2022-07-29T13:37:15;6.18;;;4.95;;
48767;SDS011;34933;40.968;14.538;2022-07-29T13:40:02;9.23;;;4.47;;
48767;SDS011;34933;40.968;14.538;2022-07-29T13:42:46;10.23;;;4.40;;
48767;SDS011;34933;40.968;14.538;2022-07-29T13:45:31;12.02;;;5.18;;
48767;SDS011;34933;40.968;14.538;2022-07-29T13:48:15;7.70;;;4.25;;
48767;SDS011;34933;40.968;14.538;2022-07-29T13:51:00;7.80;;;4.60;;
48767;SDS011;34933;40.968;14.538;2022-07-29T13:53:45;6.80;;;4.90;;
48767;SDS011;34933;40.968;14.538;2022-07-29T13:56:29;10.75;;;4.25;;
48767;SDS011;34933;40.968;14.538;2022-07-29T13:59:14;12.00;;;4.28;;
48767;SDS011;34933;40.968;14.538;2022-07-29T14:01:58;38.90;;;5.70;;
48767;SDS011;34933;40.968;14.538;2022-07-29T14:04:43;13.80;;;4.88;;
48767;SDS011;34933;40.968;14.538;2022-07-29T14:07:28;14.80;;;4.10;;
48767;SDS011;34933;40.968;14.538;2022-07-29T14:10:12;12.25;;;4.00;;
48767;SDS011;34933;40.968;14.538;2022-07-29T14:12:57;14.25;;;4.40;;
48767;SDS011;34933;40.968;14.538;2022-07-29T14:15:42;11.02;;;3.50;;
48767;SDS011;34933;40.968;14.538;2022-07-29T14:18:26;11.40;;;3.50;;
48767;SDS011;34933;40.968;14.538;2022-07-29T14:21:11;9.95;;;3.80;;
48767;SDS011;34933;40.968;14.538;2022-07-29T14:23:55;16.42;;;4.30;;
48767;SDS011;34933;40.968;14.538;2022-07-29T14:26:40;11.85;;;4.20;;
48767;SDS011;34933;40.968;14.538;2022-07-29T14:29:25;11.85;;;3.85;;
48767;SDS011;34933;40.968;14.538;2022-07-29T14:32:12;10.15;;;4.20;;
48767;SDS011;34933;40.968;14.538;2022-07-29T14:34:59;10.00;;;3.30;;
48767;SDS011;34933;40.968;14.538;2022-07-29T14:37:44;4.68;;;3.40;;
48767;SDS011;34933;40.968;14.538;2022-07-29T14:40:28;14.20;;;4.43;;
48767;SDS011;34933;40.968;14.538;2022-07-29T14:43:13;9.95;;;3.80;;
48767;SDS011;34933;40.968;14.538;2022-07-29T14:45:58;10.40;;;3.78;;
48767;SDS011;34933;40.968;14.538;2022-07-29T14:48:43;11.13;;;3.78;;
48767;SDS011;34933;40.968;14.538;2022-07-29T14:51:27;8.57;;;3.67;;
48767;SDS011;34933;40.968;14.538;2022-07-29T14:54:12;8.50;;;3.85;;
48767;SDS011;34933;40.968;14.538;2022-07-29T14:56:56;7.60;;;3.53;;
48767;SDS011;34933;40.968;14.538;2022-07-29T14:59:41;11.13;;;4.10;;
48767;SDS011;34933;40.968;14.538;2022-07-29T15:02:25;10.32;;;4.30;;
48767;SDS011;34933;40.968;14.538;2022-07-29T15:05:10;9.80;;;4.30;;
48767;SDS011;34933;40.968;14.538;2022-07-29T15:07:55;9.57;;;4.45;;
48767;SDS011;34933;40.968;14.538;2022-07-29T15:10:39;13.65;;;4.10;;
48767;SDS011;34933;40.968;14.538;2022-07-29T15:13:24;16.27;;;3.80;;
48767;SDS011;34933;40.968;14.538;2022-07-29T15:16:09;8.25;;;4.15;;
48767;SDS011;34933;40.968;14.538;2022-07-29T15:18:54;10.07;;;4.20;;
48767;SDS011;34933;40.968;14.538;2022-07-29T15:21:40;10.95;;;4.00;;
48767;SDS011;34933;40.968;14.538;2022-07-29T15:24:25;9.82;;;3.67;;
48767;SDS011;34933;40.968;14.538;2022-07-29T15:27:09;10.85;;;3.50;;
48767;SDS011;34933;40.968;14.538;2022-07-29T15:29:58;7.15;;;3.75;;
48767;SDS011;34933;40.968;14.538;2022-07-29T15:32:43;8.20;;;3.92;;
48767;SDS011;34933;40.968;14.538;2022-07-29T15:35:28;8.85;;;4.10;;
48767;SDS011;34933;40.968;14.538;2022-07-29T15:38:13;9.45;;;3.30;;
48767;SDS011;34933;40.968;14.538;2022-07-29T15:40:57;11.07;;;3.90;;
48767;SDS011;34933;40.968;14.538;2022-07-29T15:43:45;10.43;;;3.80;;
48767;SDS011;34933;40.968;14.538;2022-07-29T15:46:31;12.77;;;4.30;;
48767;SDS011;34933;40.968;14.538;2022-07-29T15:49:38;10.90;;;4.10;;
48767;SDS011;34933;40.968;14.538;2022-07-29T15:52:23;13.32;;;4.07;;
48767;SDS011;34933;40.968;14.538;2022-07-29T15:55:08;17.58;;;4.15;;
48767;SDS011;34933;40.968;14.538;2022-07-29T15:57:52;10.40;;;4.05;;
48767;SDS011;34933;40.968;14.538;2022-07-29T16:00:37;15.63;;;7.22;;
48767;SDS011;34933;40.968;14.538;2022-07-29T16:03:22;13.38;;;4.35;;
48767;SDS011;34933;40.968;14.538;2022-07-29T16:06:07;13.57;;;4.15;;
48767;SDS011;34933;40.968;14.538;2022-07-29T16:08:51;11.40;;;4.03;;
48767;SDS011;34933;40.968;14.538;2022-07-29T16:11:38;7.88;;;3.35;;
48767;SDS011;34933;40.968;14.538;2022-07-29T16:14:23;6.53;;;3.83;;
48767;SDS011;34933;40.968;14.538;2022-07-29T16:17:08;13.18;;;4.15;;
48767;SDS011;34933;40.968;14.538;2022-07-29T16:19:52;10.07;;;3.78;;
48767;SDS011;34933;40.968;14.538;2022-07-29T16:22:37;8.90;;;3.65;;
48767;SDS011;34933;40.968;14.538;2022-07-29T16:25:22;10.32;;;3.53;;
48767;SDS011;34933;40.968;14.538;2022-07-29T16:28:07;9.40;;;3.45;;
48767;SDS011;34933;40.968;14.538;2022-07-29T16:30:52;14.52;;;3.60;;
48767;SDS011;34933;40.968;14.538;2022-07-29T16:33:36;9.18;;;3.60;;
48767;SDS011;34933;40.968;14.538;2022-07-29T16:36:21;8.68;;;3.20;;
48767;SDS011;34933;40.968;14.538;2022-07-29T16:39:05;7.50;;;3.33;;
48767;SDS011;34933;40.968;14.538;2022-07-29T16:41:50;11.05;;;3.83;;
48767;SDS011;34933;40.968;14.538;2022-07-29T16:44:35;17.58;;;3.88;;
48767;SDS011;34933;40.968;14.538;2022-07-29T16:47:19;10.52;;;3.80;;
48767;SDS011;34933;40.968;14.538;2022-07-29T16:50:04;15.93;;;4.30;;
48767;SDS011;34933;40.968;14.538;2022-07-29T16:52:49;13.10;;;3.92;;
48767;SDS011;34933;40.968;14.538;2022-07-29T16:55:34;7.47;;;3.45;;
48767;SDS011;34933;40.968;14.538;2022-07-29T16:58:19;10.75;;;4.03;;
48767;SDS011;34933;40.968;14.538;2022-07-29T17:01:03;11.23;;;3.05;;
48767;SDS011;34933;40.968;14.538;2022-07-29T17:03:49;7.88;;;3.25;;
48767;SDS011;34933;40.968;14.538;2022-07-29T17:06:48;9.30;;;2.65;;
48767;SDS011;34933;40.968;14.538;2022-07-29T17:09:33;15.20;;;3.10;;
48767;SDS011;34933;40.968;14.538;2022-07-29T17:12:18;15.88;;;3.72;;
48767;SDS011;34933;40.968;14.538;2022-07-29T17:15:03;10.68;;;3.10;;